createdAt,value
2017-09-02T00:02:00.537Z,8.40
2017-09-02T00:04:27.821Z,8.70
2017-09-02T00:06:55.134Z,11.87
2017-09-02T00:09:22.454Z,8.60
2017-09-02T00:11:49.930Z,8.70
2017-09-02T00:14:17.225Z,8.40
2017-09-02T00:16:44.690Z,7.10
2017-09-02T00:19:12.022Z,9.93
2017-09-02T00:21:39.378Z,9.97
2017-09-02T00:24:06.702Z,8.33
2017-09-02T00:26:34.043Z,9.83
2017-09-02T00:29:01.333Z,9.57
2017-09-02T00:31:28.638Z,8.93
2017-09-02T00:33:55.975Z,7.37
2017-09-02T00:36:23.318Z,9.00
2017-09-02T00:38:50.632Z,10.63
2017-09-02T00:41:17.916Z,9.00
2017-09-02T00:43:45.251Z,8.90
2017-09-02T00:46:12.553Z,12.67
2017-09-02T00:48:39.873Z,11.77
2017-09-02T00:51:07.236Z,12.50
2017-09-02T00:53:34.541Z,9.73
2017-09-02T00:56:01.851Z,10.53
2017-09-02T00:58:29.205Z,12.07
2017-09-02T01:00:56.521Z,13.57
2017-09-02T01:03:23.903Z,10.93
2017-09-02T01:05:51.193Z,9.77
2017-09-02T01:08:18.492Z,8.87
2017-09-02T01:10:46.094Z,11.10
2017-09-02T01:13:13.434Z,8.37
2017-09-02T01:15:40.753Z,10.50
2017-09-02T01:18:08.451Z,8.37
2017-09-02T01:20:35.765Z,10.57
2017-09-02T01:23:03.193Z,10.20
2017-09-02T01:25:30.530Z,6.47
2017-09-02T01:27:57.811Z,8.60
2017-09-02T01:30:41.818Z,10.80
2017-09-02T01:33:09.145Z,8.90
2017-09-02T01:35:36.469Z,10.00
2017-09-02T01:38:03.762Z,9.90
2017-09-02T01:40:31.088Z,7.37
2017-09-02T01:42:58.410Z,9.80
2017-09-02T01:45:25.729Z,9.90
2017-09-02T01:47:53.026Z,9.60
2017-09-02T01:50:20.361Z,9.50
2017-09-02T01:52:47.691Z,10.80
2017-09-02T01:55:15.048Z,10.27
2017-09-02T01:57:42.374Z,8.90
2017-09-02T02:00:09.723Z,10.53
2017-09-02T02:02:37.052Z,18.23
2017-09-02T02:05:04.367Z,11.40
2017-09-02T02:07:31.698Z,12.33
2017-09-02T02:09:58.988Z,11.03
2017-09-02T02:12:26.323Z,13.07
2017-09-02T02:14:53.649Z,10.53
2017-09-02T02:17:20.987Z,11.37
2017-09-02T02:19:48.349Z,12.87
2017-09-02T02:22:15.704Z,12.40
2017-09-02T02:24:43.012Z,10.17
2017-09-02T02:27:10.373Z,13.27
2017-09-02T02:29:37.693Z,10.30
2017-09-02T02:32:05.049Z,11.63
2017-09-02T02:34:32.386Z,14.27
2017-09-02T02:36:59.729Z,15.23
2017-09-02T02:39:27.058Z,17.87
2017-09-02T02:41:54.423Z,11.03
2017-09-02T02:44:21.729Z,11.87
2017-09-02T02:46:49.044Z,12.30
2017-09-02T02:49:16.349Z,12.57
2017-09-02T02:51:43.681Z,13.30
2017-09-02T02:54:11.052Z,12.67
2017-09-02T02:56:38.383Z,14.13
2017-09-02T02:59:05.677Z,12.43
2017-09-02T03:01:33.079Z,11.17
2017-09-02T03:04:00.368Z,10.20
2017-09-02T03:06:27.701Z,13.80
2017-09-02T03:08:55.022Z,17.50
2017-09-02T03:11:22.331Z,10.90
2017-09-02T03:13:49.642Z,14.23
2017-09-02T03:16:16.973Z,12.00
2017-09-02T03:18:44.325Z,12.90
2017-09-02T03:21:11.650Z,13.20
2017-09-02T03:23:38.966Z,11.20
2017-09-02T03:26:06.275Z,10.63
2017-09-02T03:28:33.923Z,13.60
2017-09-02T03:31:01.218Z,13.93
2017-09-02T03:33:28.524Z,10.67
2017-09-02T03:35:55.830Z,13.53
2017-09-02T03:38:23.145Z,11.40
2017-09-02T03:40:50.486Z,12.17
2017-09-02T03:43:17.824Z,13.30
2017-09-02T03:45:45.184Z,12.30
2017-09-02T03:48:12.531Z,11.33
2017-09-02T03:50:39.846Z,13.20
2017-09-02T03:53:07.175Z,11.47
2017-09-02T03:55:34.472Z,10.00
2017-09-02T03:58:01.795Z,13.13
2017-09-02T04:00:29.105Z,13.67
2017-09-02T04:02:56.588Z,12.77
2017-09-02T04:05:24.202Z,12.63
2017-09-02T04:07:51.586Z,15.80
2017-09-02T04:10:18.876Z,15.63
2017-09-02T04:12:46.177Z,15.87
2017-09-02T04:15:13.497Z,16.30
2017-09-02T04:17:40.816Z,15.90
2017-09-02T04:20:08.131Z,14.37
2017-09-02T04:22:35.434Z,14.70
2017-09-02T04:25:02.756Z,17.97
2017-09-02T04:27:30.081Z,20.47
2017-09-02T04:29:57.425Z,17.33
2017-09-02T04:32:24.774Z,19.57
2017-09-02T04:34:52.112Z,15.70
2017-09-02T04:37:19.429Z,15.83
2017-09-02T04:39:46.997Z,10.80
2017-09-02T04:42:14.307Z,13.57
2017-09-02T04:44:41.810Z,13.77
2017-09-02T04:47:09.091Z,11.77
2017-09-02T04:49:36.407Z,14.10
2017-09-02T04:52:03.739Z,13.90
2017-09-02T04:54:31.045Z,10.37
2017-09-02T04:56:58.383Z,13.10
2017-09-02T04:59:25.733Z,14.30
2017-09-02T05:01:53.073Z,10.30
2017-09-02T05:04:20.395Z,11.30
2017-09-02T05:06:47.732Z,9.37
2017-09-02T05:09:15.083Z,11.77
2017-09-02T05:11:42.436Z,9.60
2017-09-02T05:14:09.753Z,12.40
2017-09-02T05:16:37.056Z,14.17
2017-09-02T05:19:04.466Z,10.83
2017-09-02T05:21:32.097Z,9.30
2017-09-02T05:23:59.442Z,11.07
2017-09-02T05:26:26.771Z,12.20
2017-09-02T05:28:54.142Z,7.50
2017-09-02T05:31:21.531Z,11.87
2017-09-02T05:33:48.844Z,9.80
2017-09-02T05:36:16.141Z,11.90
2017-09-02T05:38:43.520Z,10.10
2017-09-02T05:41:11.131Z,14.87
2017-09-02T05:43:38.511Z,12.70
2017-09-02T05:46:05.827Z,10.97
2017-09-02T05:48:33.169Z,8.73
2017-09-02T05:51:00.484Z,9.10
2017-09-02T05:53:27.802Z,9.87
2017-09-02T05:55:55.101Z,13.93
2017-09-02T05:58:22.437Z,12.30
2017-09-02T06:00:49.771Z,14.23
2017-09-02T06:03:17.168Z,13.07
2017-09-02T06:05:44.467Z,16.70
2017-09-02T06:08:11.773Z,11.37
2017-09-02T06:10:39.080Z,7.40
2017-09-02T06:13:06.389Z,10.23
2017-09-02T06:15:34.042Z,9.77
2017-09-02T06:18:01.348Z,7.87
2017-09-02T06:20:28.666Z,8.67
2017-09-02T06:22:55.970Z,14.70
2017-09-02T06:25:23.307Z,7.67
2017-09-02T06:27:50.614Z,9.40
2017-09-02T06:30:17.916Z,7.37
2017-09-02T06:32:45.222Z,11.43
2017-09-02T06:35:12.578Z,14.00
2017-09-02T06:37:39.871Z,10.10
2017-09-02T06:40:07.237Z,9.17
2017-09-02T06:42:34.805Z,6.47
2017-09-02T06:45:02.120Z,6.97
2017-09-02T06:47:29.438Z,8.33
2017-09-02T06:49:56.946Z,8.00
2017-09-02T06:52:24.249Z,9.33
2017-09-02T06:54:51.581Z,8.73
2017-09-02T06:57:18.898Z,6.27
2017-09-02T06:59:46.218Z,10.13
2017-09-02T07:02:13.509Z,8.20
2017-09-02T07:04:41.174Z,6.10
2017-09-02T07:07:08.504Z,10.57
2017-09-02T07:09:35.818Z,8.80
2017-09-02T07:12:03.197Z,6.53
2017-09-02T07:14:30.526Z,8.37
2017-09-02T07:16:58.219Z,9.07
2017-09-02T07:19:25.534Z,8.47
2017-09-02T07:21:52.845Z,9.57
2017-09-02T07:24:20.520Z,7.80
2017-09-02T07:26:48.705Z,7.13
2017-09-02T07:29:16.013Z,6.10
2017-09-02T07:31:43.341Z,6.87
2017-09-02T07:34:10.923Z,7.00
2017-09-02T07:36:38.362Z,5.90
2017-09-02T07:39:05.966Z,6.30
2017-09-02T07:41:33.318Z,5.73
2017-09-02T07:44:00.665Z,4.87
2017-09-02T07:46:28.018Z,6.83
2017-09-02T07:48:55.339Z,5.37
2017-09-02T07:51:22.675Z,5.87
2017-09-02T07:53:50.035Z,5.90
2017-09-02T07:56:17.347Z,4.90
2017-09-02T07:58:44.669Z,3.70
2017-09-02T08:01:11.966Z,5.80
2017-09-02T08:03:39.300Z,10.50
2017-09-02T08:06:06.629Z,4.90
2017-09-02T08:08:33.955Z,6.43
2017-09-02T08:11:01.293Z,8.77
2017-09-02T08:13:28.676Z,3.97
2017-09-02T08:15:56.051Z,6.70
2017-09-02T08:18:23.370Z,6.60
2017-09-02T08:20:50.684Z,4.27
2017-09-02T08:23:18.040Z,6.73
2017-09-02T08:25:45.370Z,6.23
2017-09-02T08:28:12.692Z,4.73
2017-09-02T08:30:40.054Z,7.20
2017-09-02T08:33:07.390Z,3.93
2017-09-02T08:35:34.750Z,6.10
2017-09-02T08:38:02.062Z,3.80
2017-09-02T08:40:29.405Z,5.70
2017-09-02T08:42:56.776Z,4.47
2017-09-02T08:45:24.086Z,4.23
2017-09-02T08:47:51.725Z,4.10
2017-09-02T08:50:19.052Z,4.93
2017-09-02T08:52:46.359Z,4.00
2017-09-02T08:55:13.671Z,3.80
2017-09-02T08:57:40.986Z,4.83
2017-09-02T09:00:08.352Z,7.17
2017-09-02T09:02:35.661Z,2.73
2017-09-02T09:05:03.005Z,7.13
2017-09-02T09:07:30.323Z,1.97
2017-09-02T09:09:57.609Z,2.70
2017-09-02T09:12:24.955Z,3.30
2017-09-02T09:14:52.280Z,4.27
2017-09-02T09:17:19.966Z,6.07
2017-09-02T09:19:47.297Z,2.60
2017-09-02T09:22:14.638Z,4.30
2017-09-02T09:24:41.958Z,5.50
2017-09-02T09:27:09.307Z,3.20
2017-09-02T09:29:36.635Z,4.53
2017-09-02T09:32:03.980Z,4.07
2017-09-02T09:34:31.316Z,3.40
2017-09-02T09:36:58.687Z,3.80
2017-09-02T09:39:26.014Z,4.43
2017-09-02T09:41:53.358Z,3.27
2017-09-02T09:44:20.796Z,3.03
2017-09-02T09:46:48.174Z,2.93
2017-09-02T09:49:15.562Z,3.83
2017-09-02T09:51:43.843Z,2.23
2017-09-02T09:54:11.178Z,2.90
2017-09-02T09:56:38.497Z,5.63
2017-09-02T09:59:05.821Z,2.63
2017-09-02T10:01:33.138Z,2.80
2017-09-02T10:04:00.475Z,4.03
2017-09-02T10:06:27.784Z,6.30
2017-09-02T10:11:41.951Z,4.87
2017-09-02T10:14:09.321Z,4.40
2017-09-02T10:16:36.638Z,2.47
2017-09-02T10:19:03.973Z,3.17
2017-09-02T10:21:32.194Z,4.13
2017-09-02T10:23:59.552Z,4.90
2017-09-02T10:26:26.868Z,3.20
2017-09-02T10:28:54.194Z,4.70
2017-09-02T10:31:21.495Z,2.73
2017-09-02T10:33:48.873Z,1.83
2017-09-02T10:36:16.194Z,2.60
2017-09-02T10:38:43.530Z,3.00
2017-09-02T10:41:10.834Z,3.10
2017-09-02T10:43:38.502Z,5.13
2017-09-02T10:46:05.816Z,5.23
2017-09-02T10:48:34.082Z,3.63
2017-09-02T10:51:01.452Z,4.30
2017-09-02T10:53:28.744Z,4.40
2017-09-02T10:55:56.064Z,2.30
2017-09-02T10:58:23.387Z,3.27
2017-09-02T11:00:51.647Z,3.20
2017-09-02T11:03:18.960Z,2.43
2017-09-02T11:05:46.441Z,3.70
2017-09-02T11:08:13.754Z,3.73
2017-09-02T11:10:41.110Z,4.20
2017-09-02T11:13:08.410Z,3.10
2017-09-02T11:15:39.541Z,2.37
2017-09-02T11:18:06.860Z,2.23
2017-09-02T11:20:34.201Z,5.50
2017-09-02T11:23:01.786Z,3.77
2017-09-02T11:25:29.118Z,2.60
2017-09-02T11:27:56.457Z,3.73
2017-09-02T11:30:23.836Z,3.43
2017-09-02T11:32:51.211Z,3.13
2017-09-02T11:35:18.533Z,3.70
2017-09-02T11:37:45.839Z,2.23
2017-09-02T11:40:13.265Z,3.17
2017-09-02T11:42:40.581Z,3.30
2017-09-02T11:45:07.898Z,3.90
2017-09-02T11:47:35.204Z,2.23
2017-09-02T11:50:02.589Z,2.97
2017-09-02T11:52:29.902Z,2.10
2017-09-02T11:54:57.228Z,3.20
2017-09-02T11:57:25.153Z,3.17
2017-09-02T11:59:52.635Z,4.77
2017-09-02T12:02:19.977Z,3.73
2017-09-02T12:04:48.189Z,1.83
2017-09-02T12:07:15.513Z,4.13
2017-09-02T12:09:42.995Z,3.23
2017-09-02T12:12:10.337Z,8.53
2017-09-02T12:14:37.653Z,2.50
2017-09-02T12:17:04.985Z,3.70
2017-09-02T12:19:32.291Z,2.00
2017-09-02T12:21:59.615Z,3.27
2017-09-02T12:24:26.942Z,2.80
2017-09-02T12:26:54.292Z,2.10
2017-09-02T12:29:21.611Z,2.27
2017-09-02T12:31:49.114Z,2.33
2017-09-02T12:34:16.441Z,2.63
2017-09-02T12:36:43.761Z,2.93
2017-09-02T12:39:11.084Z,3.93
2017-09-02T12:41:38.426Z,2.23
2017-09-02T12:44:05.769Z,2.40
2017-09-02T12:46:33.116Z,2.07
2017-09-02T12:49:00.448Z,3.10
2017-09-02T12:51:27.803Z,2.87
2017-09-02T12:53:55.129Z,3.03
2017-09-02T12:56:22.459Z,4.13
2017-09-02T12:58:49.744Z,2.30
2017-09-02T13:01:17.114Z,3.23
2017-09-02T13:03:44.416Z,2.90
2017-09-02T13:06:11.701Z,2.40
2017-09-02T13:08:39.022Z,5.03
2017-09-02T13:11:06.423Z,3.40
2017-09-02T13:13:33.776Z,2.43
2017-09-02T13:16:01.098Z,2.27
2017-09-02T13:18:28.445Z,3.27
2017-09-02T13:20:55.763Z,2.07
2017-09-02T13:23:23.087Z,2.13
2017-09-02T13:25:50.389Z,2.63
2017-09-02T13:28:17.714Z,2.53
2017-09-02T13:30:45.046Z,3.80
2017-09-02T13:33:12.353Z,4.67
2017-09-02T13:35:39.683Z,2.50
2017-09-02T13:38:07.002Z,2.67
2017-09-02T13:40:34.301Z,3.33
2017-09-02T13:43:01.628Z,2.37
2017-09-02T13:45:28.934Z,2.80
2017-09-02T13:47:56.261Z,4.60
2017-09-02T13:50:23.550Z,2.30
2017-09-02T13:52:50.863Z,2.70
2017-09-02T13:55:18.153Z,2.27
2017-09-02T13:57:45.498Z,2.13
2017-09-02T14:00:13.120Z,5.87
2017-09-02T14:02:40.449Z,2.43
2017-09-02T14:05:07.752Z,2.80
2017-09-02T14:07:35.069Z,2.70
2017-09-02T14:10:02.406Z,3.13
2017-09-02T14:12:29.748Z,2.50
2017-09-02T14:14:57.093Z,2.47
2017-09-02T14:17:24.417Z,3.20
2017-09-02T14:19:51.762Z,2.50
2017-09-02T14:22:19.098Z,2.60
2017-09-02T14:24:47.063Z,2.80
2017-09-02T14:27:14.370Z,2.93
2017-09-02T14:29:41.690Z,2.93
2017-09-02T14:32:08.985Z,2.93
2017-09-02T14:34:36.333Z,2.90
2017-09-02T14:37:03.675Z,2.80
2017-09-02T14:39:31.023Z,2.23
2017-09-02T14:41:58.345Z,2.20
2017-09-02T14:44:25.658Z,1.70
2017-09-02T14:46:52.948Z,2.60
2017-09-02T14:49:20.265Z,4.23
2017-09-02T14:51:47.807Z,2.20
2017-09-02T14:54:15.116Z,1.80
2017-09-02T14:56:42.418Z,2.83
2017-09-02T14:59:09.766Z,2.50
2017-09-02T15:01:37.060Z,2.37
2017-09-02T15:04:04.379Z,3.17
2017-09-02T15:06:31.684Z,2.60
2017-09-02T15:08:58.996Z,3.33
2017-09-02T15:11:26.346Z,4.03
2017-09-02T15:13:53.674Z,4.70
2017-09-02T15:16:20.990Z,3.50
2017-09-02T15:18:48.303Z,2.90
2017-09-02T15:21:15.623Z,3.80
2017-09-02T15:23:43.280Z,3.57
2017-09-02T15:26:10.607Z,3.80
2017-09-02T15:28:37.921Z,4.27
2017-09-02T15:31:05.233Z,6.17
2017-09-02T15:33:32.516Z,3.70
2017-09-02T15:35:59.862Z,4.50
2017-09-02T15:38:27.197Z,5.50
2017-09-02T15:40:54.539Z,3.97
2017-09-02T15:43:21.888Z,3.83
2017-09-02T15:45:49.222Z,3.00
2017-09-02T15:48:16.534Z,3.80
2017-09-02T15:50:43.845Z,5.40
2017-09-02T15:53:11.152Z,2.20
2017-09-02T15:55:38.474Z,2.50
2017-09-02T15:58:05.784Z,3.77
2017-09-02T16:00:33.111Z,2.87
2017-09-02T16:03:00.425Z,2.83
2017-09-02T16:05:27.769Z,3.93
2017-09-02T16:07:55.114Z,1.90
2017-09-02T16:10:22.420Z,1.70
2017-09-02T16:12:49.729Z,2.63
2017-09-02T16:15:17.030Z,3.03
2017-09-02T16:17:44.358Z,2.43
2017-09-02T16:20:11.688Z,1.70
2017-09-02T16:22:39.051Z,2.23
2017-09-02T16:25:06.377Z,2.73
2017-09-02T16:27:33.731Z,2.53
2017-09-02T16:30:01.053Z,4.13
2017-09-02T16:32:28.402Z,2.50
2017-09-02T16:34:55.716Z,3.50
2017-09-02T16:37:23.036Z,2.40
2017-09-02T16:39:50.344Z,4.23
2017-09-02T16:42:17.673Z,3.83
2017-09-02T16:44:44.991Z,2.67
2017-09-02T16:47:12.319Z,3.37
2017-09-02T16:49:39.604Z,3.43
2017-09-02T16:52:06.945Z,4.97
2017-09-02T16:54:34.261Z,5.30
2017-09-02T16:57:01.603Z,4.33
2017-09-02T16:59:28.940Z,6.30
2017-09-02T17:01:56.294Z,2.70
2017-09-02T17:04:23.625Z,5.37
2017-09-02T17:06:50.960Z,5.30
2017-09-02T17:09:18.278Z,4.43
2017-09-02T17:11:45.609Z,4.67
2017-09-02T17:14:13.298Z,3.27
2017-09-02T17:16:40.639Z,4.53
2017-09-02T17:19:07.985Z,5.80
2017-09-02T17:21:35.332Z,5.30
2017-09-02T17:24:02.667Z,4.67
2017-09-02T17:26:29.979Z,5.17
2017-09-02T17:28:57.402Z,11.93
2017-09-02T17:31:24.715Z,4.77
2017-09-02T17:33:52.046Z,3.30
2017-09-02T17:36:19.378Z,4.50
2017-09-02T17:38:46.704Z,4.30
2017-09-02T17:41:14.091Z,6.03
2017-09-02T17:43:41.406Z,5.03
2017-09-02T17:46:08.721Z,4.40
2017-09-02T17:48:36.040Z,5.17
2017-09-02T17:51:03.339Z,5.17
2017-09-02T17:53:30.798Z,5.53
2017-09-02T17:55:58.109Z,5.60
2017-09-02T17:58:25.419Z,6.70
2017-09-02T18:00:52.728Z,6.50
2017-09-02T18:03:20.038Z,6.03
2017-09-02T18:05:47.395Z,6.40
2017-09-02T18:08:14.685Z,6.27
2017-09-02T18:10:42.021Z,8.30
2017-09-02T18:13:09.324Z,6.73
2017-09-02T18:15:36.642Z,6.23
2017-09-02T18:18:03.958Z,5.03
2017-09-02T18:20:31.309Z,5.27
2017-09-02T18:22:58.646Z,7.03
2017-09-02T18:25:25.998Z,6.77
2017-09-02T18:27:53.312Z,9.90
2017-09-02T18:30:20.656Z,5.73
2017-09-02T18:32:48.092Z,5.40
2017-09-02T18:35:15.412Z,6.77
2017-09-02T18:37:42.735Z,7.00
2017-09-02T18:40:10.043Z,7.90
2017-09-02T18:42:37.404Z,7.07
2017-09-02T18:45:04.722Z,6.00
2017-09-02T18:47:32.074Z,6.93
2017-09-02T18:49:59.392Z,6.00
2017-09-02T18:52:26.751Z,5.30
2017-09-02T18:54:54.084Z,7.60
2017-09-02T18:57:21.463Z,7.93
2017-09-02T18:59:48.761Z,6.80
2017-09-02T19:02:16.157Z,5.07
2017-09-02T19:04:43.994Z,7.63
2017-09-02T19:07:11.312Z,6.10
2017-09-02T19:09:38.645Z,7.63
2017-09-02T19:12:06.219Z,7.27
2017-09-02T19:14:33.583Z,8.13
2017-09-02T19:17:00.898Z,6.70
2017-09-02T19:19:28.245Z,7.97
2017-09-02T19:21:55.598Z,7.27
2017-09-02T19:24:22.892Z,8.23
2017-09-02T19:26:50.252Z,12.83
2017-09-02T19:29:17.576Z,10.70
2017-09-02T19:31:44.913Z,8.80
2017-09-02T19:34:12.236Z,6.77
2017-09-02T19:36:39.548Z,9.63
2017-09-02T19:39:06.860Z,11.17
2017-09-02T19:41:34.181Z,14.13
2017-09-02T19:44:01.532Z,13.30
2017-09-02T19:46:28.839Z,9.90
2017-09-02T19:48:56.166Z,8.37
2017-09-02T19:51:23.470Z,10.90
2017-09-02T19:53:50.813Z,11.20
2017-09-02T19:56:18.210Z,8.77
2017-09-02T19:58:45.529Z,12.03
2017-09-02T20:01:12.856Z,12.97
2017-09-02T20:03:40.200Z,12.00
2017-09-02T20:06:07.509Z,12.07
2017-09-02T20:08:34.830Z,10.10
2017-09-02T20:11:02.167Z,14.27
2017-09-02T20:13:29.530Z,11.33
2017-09-02T20:15:56.854Z,9.87
2017-09-02T20:18:24.218Z,12.00
2017-09-02T20:20:52.370Z,11.10
2017-09-02T20:23:19.709Z,13.43
2017-09-02T20:25:47.028Z,12.70
2017-09-02T20:28:14.381Z,16.73
2017-09-02T20:30:41.755Z,21.70
2017-09-02T20:33:09.057Z,13.87
2017-09-02T20:35:36.413Z,14.67
2017-09-02T20:38:03.735Z,12.60
2017-09-02T20:40:31.078Z,8.90
2017-09-02T20:42:58.462Z,9.10
2017-09-02T20:45:25.764Z,10.23
2017-09-02T20:47:53.108Z,9.80
2017-09-02T20:50:20.471Z,12.23
2017-09-02T20:52:47.780Z,10.20
2017-09-02T20:55:15.170Z,10.70
2017-09-02T20:57:42.474Z,8.47
2017-09-02T21:00:09.848Z,10.40
2017-09-02T21:02:37.212Z,9.80
2017-09-02T21:05:04.504Z,11.50
2017-09-02T21:07:31.847Z,11.80
2017-09-02T21:09:59.173Z,11.07
2017-09-02T21:12:27.448Z,14.03
2017-09-02T21:14:54.781Z,9.97
2017-09-02T21:17:22.157Z,8.50
2017-09-02T21:19:49.503Z,12.27
2017-09-02T21:22:16.832Z,11.37
2017-09-02T21:24:44.142Z,11.30
2017-09-02T21:27:11.508Z,9.33
2017-09-02T21:29:38.821Z,10.73
2017-09-02T21:32:06.133Z,13.00
2017-09-02T21:34:33.452Z,10.93
2017-09-02T21:37:00.793Z,10.60
2017-09-02T21:39:28.090Z,13.57
2017-09-02T21:41:55.444Z,12.50
2017-09-02T21:44:22.786Z,11.57
2017-09-02T21:46:50.113Z,13.30
2017-09-02T21:49:17.454Z,14.00
2017-09-02T21:51:44.808Z,13.40
2017-09-02T21:54:12.151Z,11.60
2017-09-02T21:56:39.469Z,11.80
2017-09-02T21:59:06.800Z,10.33
2017-09-02T22:01:34.109Z,10.43
2017-09-02T22:04:01.419Z,9.70
2017-09-02T22:06:28.778Z,10.00
2017-09-02T22:08:56.083Z,11.40
2017-09-02T22:11:23.421Z,10.43
2017-09-02T22:13:50.807Z,11.30
2017-09-02T22:16:18.404Z,9.50
2017-09-02T22:18:45.725Z,11.67
2017-09-02T22:21:13.033Z,11.97
2017-09-02T22:23:40.365Z,15.50
2017-09-02T22:26:07.680Z,13.70
2017-09-02T22:28:35.015Z,15.27
2017-09-02T22:31:02.355Z,12.53
2017-09-02T22:33:29.718Z,13.63
2017-09-02T22:35:57.063Z,14.53
2017-09-02T22:38:24.407Z,14.97
2017-09-02T22:40:51.718Z,13.13
2017-09-02T22:43:19.087Z,13.43
2017-09-02T22:45:46.415Z,17.80
2017-09-02T22:48:13.762Z,13.00
2017-09-02T22:50:41.062Z,14.30
2017-09-02T22:53:08.381Z,9.10
2017-09-02T22:55:35.709Z,12.07
2017-09-02T22:58:03.945Z,11.40
2017-09-02T23:00:31.268Z,10.53
2017-09-02T23:02:58.600Z,11.67
2017-09-02T23:05:25.916Z,9.03
2017-09-02T23:07:53.264Z,10.00
2017-09-02T23:10:20.572Z,12.20
2017-09-02T23:12:47.909Z,14.00
2017-09-02T23:15:15.215Z,13.50
2017-09-02T23:17:42.549Z,10.97
2017-09-02T23:20:09.927Z,14.20
2017-09-02T23:22:37.251Z,13.57
2017-09-02T23:25:04.609Z,12.37
2017-09-02T23:27:31.907Z,13.63
2017-09-02T23:29:59.238Z,12.00
2017-09-02T23:32:27.529Z,12.00
2017-09-02T23:34:54.886Z,14.17
2017-09-02T23:37:22.189Z,9.73
2017-09-02T23:39:49.518Z,13.90
2017-09-02T23:42:16.827Z,14.57
2017-09-02T23:44:44.136Z,9.90
2017-09-02T23:47:11.469Z,9.70
2017-09-02T23:49:38.941Z,13.53
2017-09-02T23:52:06.257Z,11.00
2017-09-02T23:54:33.607Z,12.83
2017-09-02T23:57:00.943Z,9.93
2017-09-02T23:59:28.291Z,12.23
